LFBY/XDA METAR and TAF weather

Enter ICAO airport designator
Station Type Date Time Source
LFBY METAR 2019/08/24 09:00 UTC NOAA

LFBY 240900Z VRB02KT CAVOK 26/18 Q1017


Station Type Date Time Source
LFBY Decoded METAR 2019/08/24 09:00 UTC NOAA

Station name not available
Aug 24, 2019 - 05:00 AM EDT / 2019.08.24 0900 UTC
Wind: Variable at 2 MPH (2 KT):0
Visibility: greater than 7 mile(s):0
Temperature: 78 F (26 C)
Dew Point: 64 F (18 C)
Relative Humidity: 61%
Pressure (altimeter): 30.03 in. Hg (1017 hPa)
ob: LFBY 240900Z VRB02KT CAVOK 26/18 Q1017
cycle: 9

Station Type Date Time Source
LFBY TAF UTC NOAA

Error!

Example: see airport list